createdAt,value
2018-09-13T00:01:20.468Z,32.13
2018-09-13T00:03:48.084Z,30.73
2018-09-13T00:06:15.643Z,27.47
2018-09-13T00:08:43.219Z,26.47
2018-09-13T00:11:10.863Z,24.50
2018-09-13T00:13:38.469Z,24.43
2018-09-13T00:16:06.127Z,23.43
2018-09-13T00:18:33.908Z,26.00
2018-09-13T00:21:01.646Z,29.70
2018-09-13T00:23:29.224Z,24.83
2018-09-13T00:25:56.864Z,28.07
2018-09-13T00:28:24.510Z,27.97
2018-09-13T00:30:52.396Z,30.30
2018-09-13T00:33:20.120Z,34.67
2018-09-13T00:35:47.828Z,34.07
2018-09-13T00:38:15.472Z,28.00
2018-09-13T00:40:43.138Z,24.63
2018-09-13T00:43:10.820Z,24.40
2018-09-13T00:45:38.598Z,32.73
2018-09-13T00:48:06.365Z,31.87
2018-09-13T00:50:33.932Z,32.10
2018-09-13T00:53:16.360Z,28.77
2018-09-13T00:55:43.960Z,29.73
2018-09-13T00:58:11.856Z,36.70
2018-09-13T01:00:39.405Z,31.37
2018-09-13T01:03:07.113Z,32.63
2018-09-13T01:05:34.802Z,31.97
2018-09-13T01:08:02.601Z,36.40
2018-09-13T01:10:30.242Z,36.37
2018-09-13T01:12:57.854Z,31.83
2018-09-13T01:15:25.455Z,32.07
2018-09-13T01:17:53.078Z,34.27
2018-09-13T01:20:20.894Z,32.77
2018-09-13T01:22:48.566Z,26.03
2018-09-13T01:25:16.398Z,34.40
2018-09-13T01:27:44.106Z,32.23
2018-09-13T01:30:11.854Z,34.63
2018-09-13T01:32:39.499Z,35.23
2018-09-13T01:35:07.258Z,33.43
2018-09-13T01:37:34.949Z,36.67
2018-09-13T01:40:02.661Z,42.50
2018-09-13T01:42:30.414Z,44.93
2018-09-13T01:44:58.231Z,48.97
2018-09-13T01:47:26.159Z,50.27
2018-09-13T01:49:53.870Z,44.63
2018-09-13T01:52:21.462Z,46.37
2018-09-13T01:54:49.173Z,51.00
2018-09-13T01:57:16.837Z,46.00
2018-09-13T01:59:44.747Z,48.77
2018-09-13T02:02:12.525Z,46.20
2018-09-13T02:04:40.229Z,48.10
2018-09-13T02:07:07.832Z,42.20
2018-09-13T02:09:35.448Z,50.00
2018-09-13T02:12:03.220Z,41.97
2018-09-13T02:14:30.817Z,45.80
2018-09-13T02:16:58.445Z,40.20
2018-09-13T02:19:26.122Z,45.63
2018-09-13T02:21:53.789Z,50.43
2018-09-13T02:24:21.429Z,46.33
2018-09-13T02:26:48.997Z,37.37
2018-09-13T02:29:16.593Z,41.33
2018-09-13T02:31:44.168Z,45.37
2018-09-13T02:34:11.873Z,36.57
2018-09-13T02:36:39.491Z,40.80
2018-09-13T02:39:08.437Z,37.17
2018-09-13T02:41:36.006Z,36.30
2018-09-13T02:44:04.022Z,45.00
2018-09-13T02:46:31.607Z,38.33
2018-09-13T02:48:59.165Z,33.70
2018-09-13T02:51:26.746Z,43.50
2018-09-13T02:53:54.286Z,42.63
2018-09-13T02:56:21.943Z,38.50
2018-09-13T02:58:49.567Z,38.13
2018-09-13T03:01:17.149Z,49.10
2018-09-13T03:03:44.704Z,38.07
2018-09-13T03:06:12.266Z,38.37
2018-09-13T03:08:39.860Z,44.47
2018-09-13T03:11:07.542Z,39.53
2018-09-13T03:13:35.141Z,37.80
2018-09-13T03:16:02.759Z,39.07
2018-09-13T03:18:30.465Z,38.43
2018-09-13T03:20:58.045Z,37.33
2018-09-13T03:23:25.727Z,44.30
2018-09-13T03:25:53.277Z,29.77
2018-09-13T03:28:20.908Z,33.13
2018-09-13T03:30:48.525Z,32.07
2018-09-13T03:33:20.295Z,50.90
2018-09-13T03:35:47.862Z,31.73
2018-09-13T03:38:15.441Z,34.33
2018-09-13T03:40:43.052Z,31.60
2018-09-13T03:43:10.622Z,31.97
2018-09-13T03:45:38.182Z,31.10
2018-09-13T03:48:06.705Z,31.90
2018-09-13T03:50:34.572Z,25.57
2018-09-13T03:53:02.406Z,36.27
2018-09-13T03:55:30.013Z,29.83
2018-09-13T03:57:57.582Z,30.23
2018-09-13T04:00:25.146Z,28.40
2018-09-13T04:02:52.754Z,32.97
2018-09-13T04:05:20.329Z,31.10
2018-09-13T04:07:47.878Z,33.37
2018-09-13T04:10:15.478Z,33.63
2018-09-13T04:12:47.790Z,33.00
2018-09-13T04:15:15.380Z,34.73
2018-09-13T04:17:43.011Z,32.40
2018-09-13T04:20:10.607Z,29.43
2018-09-13T04:22:44.844Z,30.20
2018-09-13T04:25:12.433Z,34.83
2018-09-13T04:27:39.977Z,23.53
2018-09-13T04:30:07.638Z,30.87
2018-09-13T04:32:35.221Z,30.77
2018-09-13T04:35:02.857Z,24.93
2018-09-13T04:37:30.442Z,36.87
2018-09-13T04:39:58.009Z,31.00
2018-09-13T04:42:25.634Z,33.23
2018-09-13T04:44:53.197Z,33.10
2018-09-13T04:47:20.757Z,40.47
2018-09-13T04:49:48.449Z,38.53
2018-09-13T04:52:16.113Z,42.53
2018-09-13T04:54:43.690Z,36.67
2018-09-13T04:57:11.313Z,33.43
2018-09-13T04:59:38.891Z,28.47
2018-09-13T05:02:06.504Z,29.90
2018-09-13T05:04:34.072Z,34.60
2018-09-13T05:07:01.671Z,35.33
2018-09-13T05:09:29.277Z,33.07
2018-09-13T05:12:01.077Z,30.70
2018-09-13T05:14:28.660Z,34.60
2018-09-13T05:16:56.244Z,28.60
2018-09-13T05:19:23.804Z,26.37
2018-09-13T05:21:52.452Z,21.17
2018-09-13T05:24:20.147Z,27.07
2018-09-13T05:26:47.785Z,25.10
2018-09-13T05:29:15.477Z,25.13
2018-09-13T05:31:43.228Z,23.27
2018-09-13T05:34:10.920Z,23.20
2018-09-13T05:36:38.638Z,20.30
2018-09-13T05:39:10.129Z,24.97
2018-09-13T05:41:38.205Z,23.47
2018-09-13T05:44:05.837Z,25.60
2018-09-13T05:46:33.421Z,26.30
2018-09-13T05:49:01.121Z,27.37
2018-09-13T05:51:28.801Z,28.53
2018-09-13T05:53:56.593Z,27.97
2018-09-13T05:56:24.479Z,33.90
2018-09-13T05:58:52.119Z,28.20
2018-09-13T06:01:19.754Z,38.83
2018-09-13T06:03:47.406Z,31.60
2018-09-13T06:06:15.213Z,26.10
2018-09-13T06:08:42.983Z,34.03
2018-09-13T06:11:10.582Z,28.00
2018-09-13T06:13:38.462Z,35.67
2018-09-13T06:16:06.348Z,33.17
2018-09-13T06:18:34.117Z,30.07
2018-09-13T06:21:01.754Z,30.27
2018-09-13T06:23:29.358Z,28.80
2018-09-13T06:25:56.917Z,31.53
2018-09-13T06:28:24.501Z,37.67
2018-09-13T06:30:52.213Z,37.03
2018-09-13T06:33:19.819Z,35.37
2018-09-13T06:35:47.408Z,37.07
2018-09-13T06:38:15.201Z,37.13
2018-09-13T06:40:42.822Z,34.63
2018-09-13T06:43:10.406Z,40.07
2018-09-13T06:45:37.993Z,34.70
2018-09-13T06:48:05.866Z,37.73
2018-09-13T06:50:33.477Z,42.20
2018-09-13T06:53:01.085Z,39.80
2018-09-13T06:55:28.713Z,40.50
2018-09-13T06:57:56.285Z,45.77
2018-09-13T07:00:23.912Z,40.60
2018-09-13T07:02:51.456Z,44.50
2018-09-13T07:05:19.068Z,45.03
2018-09-13T07:07:46.709Z,39.97
2018-09-13T07:10:14.340Z,47.20
2018-09-13T07:12:41.957Z,43.53
2018-09-13T07:15:09.618Z,40.30
2018-09-13T07:17:37.189Z,36.03
2018-09-13T07:20:05.253Z,36.10
2018-09-13T07:22:33.017Z,42.60
2018-09-13T07:25:00.589Z,38.13
2018-09-13T07:27:28.289Z,35.50
2018-09-13T07:29:55.838Z,33.83
2018-09-13T07:32:23.461Z,34.27
2018-09-13T07:34:51.115Z,31.60
2018-09-13T07:37:18.785Z,34.87
2018-09-13T07:39:46.525Z,36.93
2018-09-13T07:42:14.110Z,28.80
2018-09-13T07:44:41.738Z,27.20
2018-09-13T07:47:09.413Z,27.03
2018-09-13T07:49:37.002Z,25.77
2018-09-13T07:52:04.677Z,26.40
2018-09-13T07:54:32.261Z,23.20
2018-09-13T07:56:59.873Z,23.07
2018-09-13T07:59:27.979Z,26.43
2018-09-13T08:01:55.560Z,20.07
2018-09-13T08:04:23.160Z,13.90
2018-09-13T08:06:50.762Z,13.17
2018-09-13T08:09:18.365Z,12.10
2018-09-13T08:11:45.963Z,12.53
2018-09-13T08:14:13.546Z,11.63
2018-09-13T08:16:41.193Z,15.37
2018-09-13T08:19:08.734Z,13.53
2018-09-13T08:21:36.384Z,12.13
2018-09-13T08:24:03.983Z,16.03
2018-09-13T08:26:31.578Z,14.13
2018-09-13T08:28:59.141Z,17.00
2018-09-13T08:31:26.857Z,21.17
2018-09-13T08:33:54.776Z,22.47
2018-09-13T08:36:22.342Z,36.10
2018-09-13T08:38:49.945Z,37.33
2018-09-13T08:41:17.598Z,39.73
2018-09-13T08:43:45.242Z,44.27
2018-09-13T08:46:12.913Z,41.37
2018-09-13T08:48:40.647Z,46.10
2018-09-13T08:51:08.240Z,44.00
2018-09-13T08:53:35.883Z,43.00
2018-09-13T08:56:03.481Z,46.80
2018-09-13T08:58:31.239Z,39.20
2018-09-13T09:00:58.813Z,33.83
2018-09-13T09:03:26.416Z,29.10
2018-09-13T09:05:54.046Z,29.83
2018-09-13T09:08:21.608Z,27.00
2018-09-13T09:10:49.269Z,24.27
2018-09-13T09:13:16.915Z,30.47
2018-09-13T09:15:44.489Z,36.07
2018-09-13T09:18:12.038Z,39.07
2018-09-13T09:20:39.628Z,37.97
2018-09-13T09:23:07.226Z,35.97
2018-09-13T09:25:34.837Z,32.23
2018-09-13T09:28:02.413Z,31.97
2018-09-13T09:30:29.992Z,33.83
2018-09-13T09:32:57.550Z,31.87
2018-09-13T09:35:25.098Z,30.97
2018-09-13T09:37:52.774Z,33.97
2018-09-13T09:40:20.338Z,52.17
2018-09-13T09:42:48.103Z,36.97
2018-09-13T09:45:15.836Z,81.17
2018-09-13T09:47:43.737Z,46.17
2018-09-13T09:50:11.777Z,40.27
2018-09-13T09:52:39.516Z,42.10
2018-09-13T09:55:07.118Z,44.63
2018-09-13T09:57:34.681Z,47.03
2018-09-13T10:00:02.317Z,47.07
2018-09-13T10:02:29.902Z,44.57
2018-09-13T10:04:57.485Z,53.13
2018-09-13T10:07:25.113Z,49.70
2018-09-13T10:09:52.779Z,48.60
2018-09-13T10:12:20.449Z,46.37
2018-09-13T10:14:53.626Z,42.67
2018-09-13T10:17:27.061Z,41.57
2018-09-13T10:20:00.397Z,34.83
2018-09-13T10:22:33.512Z,34.00
2018-09-13T10:25:06.747Z,33.90
2018-09-13T10:27:39.967Z,33.27
2018-09-13T10:30:13.214Z,31.67
2018-09-13T10:32:46.572Z,29.53
2018-09-13T10:35:19.840Z,28.97
2018-09-13T10:37:52.962Z,28.00
2018-09-13T10:40:26.252Z,25.83
2018-09-13T10:42:59.553Z,24.20
2018-09-13T10:46:30.130Z,19.97
2018-09-13T10:49:03.350Z,18.93
2018-09-13T10:51:36.538Z,19.63
2018-09-13T10:54:07.278Z,23.57
2018-09-13T10:56:35.187Z,23.43
2018-09-13T10:59:02.862Z,17.63
2018-09-13T11:01:30.454Z,15.17
2018-09-13T11:03:58.146Z,15.37
2018-09-13T11:06:25.694Z,20.70
2018-09-13T11:08:53.297Z,14.70
2018-09-13T11:11:20.870Z,14.37
2018-09-13T11:14:19.228Z,13.27
2018-09-13T11:16:46.813Z,11.90
2018-09-13T11:19:14.426Z,10.90
2018-09-13T11:21:42.061Z,11.20
2018-09-13T11:24:09.620Z,13.20
2018-09-13T11:26:37.217Z,12.83
2018-09-13T11:29:04.940Z,14.57
2018-09-13T11:31:32.579Z,11.37
2018-09-13T11:34:00.232Z,9.07
2018-09-13T11:36:27.809Z,10.93
2018-09-13T11:38:55.416Z,9.87
2018-09-13T11:41:23.062Z,21.97
2018-09-13T11:43:51.444Z,10.80
2018-09-13T11:46:19.531Z,12.13
2018-09-13T11:48:47.560Z,12.90
2018-09-13T11:51:15.703Z,11.53
2018-09-13T11:53:43.433Z,12.30
2018-09-13T11:56:11.065Z,10.50
2018-09-13T11:58:38.906Z,9.73
2018-09-13T12:01:06.521Z,8.50
2018-09-13T12:03:34.037Z,10.47
2018-09-13T12:06:01.627Z,11.17
2018-09-13T12:08:29.241Z,9.60
2018-09-13T12:10:56.859Z,11.50
2018-09-13T12:13:24.453Z,7.67
2018-09-13T12:15:52.030Z,10.00
2018-09-13T12:18:19.853Z,9.37
2018-09-13T12:20:47.359Z,10.57
2018-09-13T12:23:15.018Z,11.10
2018-09-13T12:25:42.649Z,8.33
2018-09-13T12:28:10.433Z,7.37
2018-09-13T12:30:38.017Z,7.33
2018-09-13T12:33:06.061Z,8.70
2018-09-13T12:35:33.733Z,7.40
2018-09-13T12:38:01.550Z,9.93
2018-09-13T12:40:29.297Z,9.73
2018-09-13T12:42:56.949Z,9.87
2018-09-13T12:45:24.574Z,8.63
2018-09-13T12:47:52.333Z,9.67
2018-09-13T12:50:20.039Z,6.90
2018-09-13T12:52:47.754Z,10.03
2018-09-13T12:55:15.423Z,8.60
2018-09-13T12:57:43.082Z,6.63
2018-09-13T13:00:10.730Z,7.53
2018-09-13T13:02:38.330Z,5.90
2018-09-13T13:05:06.114Z,9.50
2018-09-13T13:07:34.052Z,7.23
2018-09-13T13:10:01.702Z,10.43
2018-09-13T13:12:29.337Z,12.43
2018-09-13T13:14:56.978Z,9.63
2018-09-13T13:17:24.641Z,7.10
2018-09-13T13:19:52.366Z,8.33
2018-09-13T13:22:20.051Z,6.83
2018-09-13T13:24:47.729Z,9.37
2018-09-13T13:27:15.363Z,6.47
2018-09-13T13:29:42.974Z,6.03
2018-09-13T13:32:10.595Z,4.40
2018-09-13T13:34:38.330Z,6.67
2018-09-13T13:37:05.894Z,4.97
2018-09-13T13:39:33.571Z,8.03
2018-09-13T13:42:01.554Z,5.57
2018-09-13T13:44:29.183Z,7.13
2018-09-13T13:46:56.840Z,4.67
2018-09-13T13:49:24.412Z,4.97
2018-09-13T13:51:52.058Z,4.53
2018-09-13T13:54:19.753Z,4.43
2018-09-13T13:56:47.409Z,4.53
2018-09-13T13:59:15.047Z,4.87
2018-09-13T14:01:42.666Z,6.60
2018-09-13T14:04:10.426Z,8.43
2018-09-13T14:06:38.074Z,7.73
2018-09-13T14:09:08.687Z,3.40
2018-09-13T14:11:36.323Z,3.70
2018-09-13T14:14:03.905Z,6.87
2018-09-13T14:16:32.091Z,4.43
2018-09-13T14:19:01.778Z,5.07
2018-09-13T14:21:29.471Z,4.53
2018-09-13T14:23:57.094Z,7.17
2018-09-13T14:26:24.723Z,5.27
2018-09-13T14:28:52.489Z,6.60
2018-09-13T14:31:20.147Z,6.93
2018-09-13T14:33:47.719Z,8.30
2018-09-13T14:36:15.369Z,3.70
2018-09-13T14:38:43.965Z,5.77
2018-09-13T14:41:12.389Z,2.67
2018-09-13T14:43:40.009Z,4.20
2018-09-13T14:46:07.618Z,4.23
2018-09-13T14:48:35.228Z,2.97
2018-09-13T14:51:02.902Z,5.40
2018-09-13T14:53:31.101Z,5.30
2018-09-13T14:55:58.768Z,3.77
2018-09-13T14:58:26.364Z,6.80
2018-09-13T15:00:53.942Z,3.47
2018-09-13T15:03:21.505Z,2.83
2018-09-13T15:05:49.838Z,3.73
2018-09-13T15:08:17.501Z,3.10
2018-09-13T15:10:45.248Z,3.43
2018-09-13T15:13:12.804Z,5.60
2018-09-13T15:15:40.853Z,6.73
2018-09-13T15:18:08.431Z,6.97
2018-09-13T15:20:36.126Z,4.97
2018-09-13T15:23:03.769Z,3.63
2018-09-13T15:25:31.394Z,5.97
2018-09-13T15:27:58.993Z,3.93
2018-09-13T15:30:26.562Z,2.30
2018-09-13T15:32:54.206Z,5.27
2018-09-13T15:35:21.866Z,6.30
2018-09-13T15:37:49.486Z,5.93
2018-09-13T15:40:17.164Z,4.70
2018-09-13T15:42:44.806Z,7.73
2018-09-13T15:45:12.424Z,4.73
2018-09-13T15:47:40.018Z,6.80
2018-09-13T15:50:07.712Z,4.37
2018-09-13T15:52:36.107Z,4.37
2018-09-13T15:55:03.683Z,5.90
2018-09-13T15:57:31.342Z,3.90
2018-09-13T15:59:58.973Z,5.33
2018-09-13T16:02:26.698Z,2.67
2018-09-13T16:04:54.329Z,4.03
2018-09-13T16:07:21.963Z,5.23
2018-09-13T16:09:49.552Z,5.77
2018-09-13T16:12:17.166Z,4.90
2018-09-13T16:14:44.766Z,4.30
2018-09-13T16:17:12.351Z,8.50
2018-09-13T16:19:39.933Z,5.80
2018-09-13T16:22:07.607Z,4.57
2018-09-13T16:24:35.279Z,3.83
2018-09-13T16:27:02.939Z,6.80
2018-09-13T16:29:30.532Z,4.60
2018-09-13T16:31:58.142Z,4.57
2018-09-13T16:34:26.003Z,7.40
2018-09-13T16:37:05.055Z,3.93
2018-09-13T16:39:38.364Z,6.00
2018-09-13T16:42:11.859Z,7.87
2018-09-13T16:44:45.002Z,6.07
2018-09-13T16:47:25.923Z,4.90
2018-09-13T16:49:53.449Z,6.17
2018-09-13T16:52:21.192Z,7.53
2018-09-13T16:54:48.807Z,4.60
2018-09-13T16:57:16.430Z,5.73
2018-09-13T16:59:43.998Z,2.67
2018-09-13T17:02:11.634Z,4.17
2018-09-13T17:04:39.187Z,4.23
2018-09-13T17:07:06.895Z,2.27
2018-09-13T17:09:34.530Z,7.77
2018-09-13T17:12:02.155Z,4.77
2018-09-13T17:14:29.759Z,5.17
2018-09-13T17:16:57.354Z,4.73
2018-09-13T17:19:24.958Z,7.07
2018-09-13T17:21:52.557Z,5.93
2018-09-13T17:24:20.186Z,4.90
2018-09-13T17:26:47.853Z,5.67
2018-09-13T17:29:15.441Z,4.63
2018-09-13T17:31:43.080Z,4.47
2018-09-13T17:34:10.709Z,5.23
2018-09-13T17:36:38.334Z,7.43
2018-09-13T17:39:09.181Z,4.53
2018-09-13T17:41:36.905Z,6.83
2018-09-13T17:44:04.526Z,3.07
2018-09-13T17:46:32.126Z,2.67
2018-09-13T17:48:59.801Z,4.53
2018-09-13T17:51:27.400Z,4.57
2018-09-13T17:53:54.977Z,4.23
2018-09-13T17:56:22.636Z,4.17
2018-09-13T17:58:50.228Z,5.57
2018-09-13T18:01:17.862Z,7.30
2018-09-13T18:03:45.596Z,6.00
2018-09-13T18:06:13.157Z,3.57
2018-09-13T18:08:40.796Z,5.90
2018-09-13T18:11:08.442Z,7.83
2018-09-13T18:13:36.024Z,6.10
2018-09-13T18:16:03.686Z,5.33
2018-09-13T18:18:31.302Z,4.93
2018-09-13T18:20:59.054Z,5.87
2018-09-13T18:23:26.698Z,5.57
2018-09-13T18:25:54.462Z,4.83
2018-09-13T18:28:22.197Z,4.00
2018-09-13T18:30:49.829Z,5.23
2018-09-13T18:33:17.502Z,6.97
2018-09-13T18:35:45.121Z,4.20
2018-09-13T18:38:12.790Z,4.27
2018-09-13T18:40:40.381Z,4.67
2018-09-13T18:43:08.124Z,6.70
2018-09-13T18:45:35.854Z,8.73
2018-09-13T18:48:03.474Z,9.13
2018-09-13T18:50:31.157Z,11.83
2018-09-13T18:52:58.812Z,7.63
2018-09-13T18:55:26.505Z,5.37
2018-09-13T18:57:54.102Z,4.83
2018-09-13T19:00:22.368Z,5.07
2018-09-13T19:02:49.975Z,8.57
2018-09-13T19:05:17.691Z,8.27
2018-09-13T19:07:45.314Z,4.30
2018-09-13T19:10:12.941Z,6.93
2018-09-13T19:12:40.543Z,7.53
2018-09-13T19:15:08.209Z,12.20
2018-09-13T19:17:35.865Z,5.90
2018-09-13T19:20:03.579Z,9.13
2018-09-13T19:22:31.245Z,8.00
2018-09-13T19:24:58.873Z,7.30
2018-09-13T19:27:26.708Z,4.73
2018-09-13T19:29:54.465Z,6.97
2018-09-13T19:32:22.202Z,8.03
2018-09-13T19:34:49.880Z,3.77
2018-09-13T19:37:17.547Z,8.07
2018-09-13T19:39:45.573Z,8.77
2018-09-13T19:42:15.196Z,10.00
2018-09-13T19:44:42.845Z,7.90
2018-09-13T19:47:10.672Z,6.10
2018-09-13T19:49:38.332Z,6.77
2018-09-13T19:52:05.921Z,6.53
2018-09-13T19:54:33.842Z,7.23
2018-09-13T19:57:01.872Z,6.33
2018-09-13T19:59:29.524Z,7.90
2018-09-13T20:01:57.213Z,9.10
2018-09-13T20:04:45.279Z,7.27
2018-09-13T20:07:12.997Z,5.27
2018-09-13T20:09:43.026Z,5.90
2018-09-13T20:12:10.678Z,6.33
2018-09-13T20:14:38.280Z,7.50
2018-09-13T20:20:20.393Z,6.50
2018-09-13T20:22:48.161Z,5.67
2018-09-13T20:25:18.334Z,8.47
2018-09-13T20:28:02.810Z,7.63
2018-09-13T20:30:30.608Z,8.23
2018-09-13T20:32:58.334Z,11.53
2018-09-13T20:35:30.716Z,7.53
2018-09-13T20:37:58.345Z,6.97
2018-09-13T20:40:25.960Z,8.37
2018-09-13T20:42:53.676Z,6.80
2018-09-13T20:45:21.341Z,5.97
2018-09-13T20:47:48.942Z,10.03
2018-09-13T20:50:20.887Z,7.87
2018-09-13T20:52:52.653Z,11.03
2018-09-13T20:55:20.365Z,7.53
2018-09-13T20:57:47.993Z,7.43
2018-09-13T21:00:19.331Z,9.07
2018-09-13T21:02:48.306Z,9.90
2018-09-13T21:05:16.485Z,11.30
2018-09-13T21:07:46.481Z,8.60
2018-09-13T21:10:14.154Z,9.87
2018-09-13T21:12:46.325Z,10.40
2018-09-13T21:15:18.649Z,7.37
2018-09-13T21:17:46.283Z,8.53
2018-09-13T21:20:13.897Z,6.17
2018-09-13T21:22:41.533Z,7.23
2018-09-13T21:25:10.421Z,6.13
2018-09-13T21:27:37.998Z,6.23
2018-09-13T21:30:05.993Z,8.87
2018-09-13T21:32:33.586Z,4.50
2018-09-13T21:35:01.197Z,7.70
2018-09-13T21:37:28.846Z,6.63
2018-09-13T21:39:56.448Z,7.30
2018-09-13T21:42:24.040Z,8.23
2018-09-13T21:44:54.639Z,5.80
2018-09-13T21:47:22.272Z,4.07
2018-09-13T21:49:49.864Z,5.03
2018-09-13T21:52:18.669Z,6.50
2018-09-13T21:54:46.381Z,5.07
2018-09-13T21:57:13.991Z,5.43
2018-09-13T21:59:42.709Z,5.90
2018-09-13T22:02:10.317Z,7.07
2018-09-13T22:04:37.917Z,7.13
2018-09-13T22:07:05.909Z,8.50
2018-09-13T22:09:33.562Z,4.67
2018-09-13T22:12:02.665Z,3.50
2018-09-13T22:14:30.276Z,6.57
2018-09-13T22:16:58.081Z,8.20
2018-09-13T22:19:25.668Z,6.73
2018-09-13T22:21:53.249Z,4.70
2018-09-13T22:24:20.806Z,4.40
2018-09-13T22:26:48.409Z,7.57
2018-09-13T22:29:16.033Z,5.57
2018-09-13T22:31:43.594Z,10.10
2018-09-13T22:34:11.148Z,7.47
2018-09-13T22:36:38.757Z,7.60
2018-09-13T22:39:08.104Z,12.10
2018-09-13T22:41:36.134Z,8.63
2018-09-13T22:44:04.218Z,10.93
2018-09-13T22:46:31.781Z,10.10
2018-09-13T22:48:59.384Z,7.23
2018-09-13T22:51:26.976Z,5.73
2018-09-13T22:53:54.647Z,8.17
2018-09-13T22:56:22.297Z,9.03
2018-09-13T22:58:50.082Z,6.23
2018-09-13T23:01:17.787Z,7.70
2018-09-13T23:03:45.381Z,12.33
2018-09-13T23:06:12.977Z,9.03
2018-09-13T23:08:40.534Z,9.07
2018-09-13T23:11:08.128Z,11.87
2018-09-13T23:13:35.744Z,10.00
2018-09-13T23:16:03.363Z,9.87
2018-09-13T23:18:31.026Z,7.27
2018-09-13T23:20:58.590Z,6.17
2018-09-13T23:23:26.174Z,7.43
2018-09-13T23:25:53.777Z,10.20
2018-09-13T23:28:21.728Z,9.33
2018-09-13T23:30:49.540Z,14.57
2018-09-13T23:33:17.103Z,10.20
2018-09-13T23:35:44.701Z,10.03
2018-09-13T23:38:12.380Z,15.90
2018-09-13T23:40:40.047Z,19.83
2018-09-13T23:43:07.474Z,17.30
2018-09-13T23:45:35.061Z,18.73
2018-09-13T23:48:15.852Z,15.57
2018-09-13T23:50:46.720Z,13.47
2018-09-13T23:53:14.270Z,11.03
2018-09-13T23:55:41.869Z,14.03
2018-09-13T23:58:09.562Z,10.73
